createdAt,value
2019-03-05T00:01:55.778Z,2.63
2019-03-05T00:04:21.924Z,2.33
2019-03-05T00:06:48.059Z,2.80
2019-03-05T00:09:16.094Z,3.03
2019-03-05T00:11:42.227Z,3.13
2019-03-05T00:14:08.611Z,2.80
2019-03-05T00:16:34.755Z,2.70
2019-03-05T00:19:00.893Z,2.97
2019-03-05T00:21:27.271Z,2.77
2019-03-05T00:23:55.956Z,2.70
2019-03-05T00:26:34.084Z,3.13
2019-03-05T00:29:24.571Z,3.67
2019-03-05T00:31:50.703Z,3.00
2019-03-05T00:34:38.070Z,3.50
2019-03-05T00:37:14.135Z,3.17
2019-03-05T00:39:44.082Z,3.40
2019-03-05T00:42:47.446Z,3.43
2019-03-05T00:45:34.078Z,3.17
2019-03-05T00:48:37.465Z,2.97
2019-03-05T00:51:25.460Z,3.33
2019-03-05T00:54:01.229Z,2.70
2019-03-05T00:56:42.979Z,2.93
2019-03-05T00:59:21.286Z,3.23
2019-03-05T01:01:56.859Z,2.53
2019-03-05T01:04:35.972Z,2.53
2019-03-05T01:07:02.524Z,3.03
2019-03-05T01:09:28.651Z,3.10
2019-03-05T01:11:54.797Z,2.77
2019-03-05T01:14:22.844Z,2.40
2019-03-05T01:16:48.978Z,3.97
2019-03-05T01:19:15.121Z,2.77
2019-03-05T01:21:41.265Z,2.87
2019-03-05T01:24:07.503Z,2.80
2019-03-05T01:26:33.652Z,2.50
2019-03-05T01:28:59.783Z,2.40
2019-03-05T01:31:54.664Z,2.40
2019-03-05T01:34:22.928Z,2.10
2019-03-05T01:36:53.494Z,1.87
2019-03-05T01:39:24.177Z,1.50
2019-03-05T01:41:50.321Z,1.83
2019-03-05T01:44:16.457Z,1.57
2019-03-05T01:46:42.606Z,1.70
2019-03-05T01:49:08.735Z,2.03
2019-03-05T01:51:34.875Z,1.87
2019-03-05T01:54:01.111Z,1.50
2019-03-05T01:56:27.273Z,1.90
2019-03-05T01:58:53.415Z,1.83
2019-03-05T02:01:20.648Z,2.07
2019-03-05T02:03:46.884Z,1.47
2019-03-05T02:06:13.019Z,2.00
2019-03-05T02:08:39.226Z,1.67
2019-03-05T02:11:05.579Z,1.60
2019-03-05T02:13:31.723Z,1.37
2019-03-05T02:15:58.133Z,1.30
2019-03-05T02:18:24.675Z,1.23
2019-03-05T02:20:51.053Z,1.40
2019-03-05T02:23:26.840Z,1.80
2019-03-05T02:25:56.768Z,1.53
2019-03-05T02:28:29.493Z,1.60
2019-03-05T02:31:02.242Z,1.73
2019-03-05T02:33:41.049Z,1.30
2019-03-05T02:36:37.833Z,1.90
2019-03-05T02:39:30.447Z,1.67
2019-03-05T02:42:00.417Z,1.70
2019-03-05T02:44:54.151Z,1.50
2019-03-05T02:47:53.667Z,2.43
2019-03-05T02:50:56.684Z,1.43
2019-03-05T02:53:41.660Z,1.67
2019-03-05T02:56:38.714Z,2.03
2019-03-05T02:59:04.922Z,1.70
2019-03-05T03:01:47.655Z,1.80
2019-03-05T03:04:18.676Z,2.33
2019-03-05T03:06:44.829Z,2.20
2019-03-05T03:09:29.743Z,2.00
2019-03-05T03:11:55.870Z,1.90
2019-03-05T03:14:22.012Z,2.20
2019-03-05T03:16:48.154Z,1.97
2019-03-05T03:19:14.304Z,1.97
2019-03-05T03:21:40.440Z,1.90
2019-03-05T03:24:06.832Z,1.93
2019-03-05T03:26:33.225Z,1.53
2019-03-05T03:28:59.410Z,1.50
2019-03-05T03:31:25.563Z,1.20
2019-03-05T03:33:51.706Z,2.03
2019-03-05T03:36:17.958Z,1.87
2019-03-05T03:38:44.100Z,1.87
2019-03-05T03:41:10.241Z,2.23
2019-03-05T03:43:36.378Z,2.37
2019-03-05T03:46:02.900Z,1.90
2019-03-05T03:48:29.094Z,2.07
2019-03-05T03:50:55.534Z,2.00
2019-03-05T03:53:21.674Z,2.20
2019-03-05T03:55:47.822Z,2.23
2019-03-05T03:58:14.155Z,2.13
2019-03-05T04:00:40.306Z,2.30
2019-03-05T04:03:06.707Z,1.60
2019-03-05T04:05:32.955Z,2.07
2019-03-05T04:07:59.121Z,2.40
2019-03-05T04:10:25.305Z,2.00
2019-03-05T04:12:51.461Z,1.80
2019-03-05T04:15:17.927Z,2.80
2019-03-05T04:17:44.067Z,2.00
2019-03-05T04:20:13.478Z,2.27
2019-03-05T04:22:39.726Z,2.30
2019-03-05T04:25:07.564Z,2.63
2019-03-05T04:27:34.167Z,2.13
2019-03-05T04:30:00.421Z,2.10
2019-03-05T04:32:26.655Z,2.37
2019-03-05T04:34:52.809Z,2.70
2019-03-05T04:37:19.023Z,2.60
2019-03-05T04:39:45.164Z,2.30
2019-03-05T04:42:11.402Z,2.63
2019-03-05T04:44:40.466Z,3.07
2019-03-05T04:47:06.627Z,2.20
2019-03-05T04:49:34.932Z,2.80
2019-03-05T04:52:06.100Z,2.57
2019-03-05T04:54:32.231Z,2.60
2019-03-05T04:56:58.404Z,3.00
2019-03-05T04:59:24.780Z,2.40
2019-03-05T05:01:50.926Z,2.27
2019-03-05T05:04:17.063Z,3.00
2019-03-05T05:06:43.460Z,2.63
2019-03-05T05:09:10.411Z,2.63
2019-03-05T05:11:36.546Z,2.73
2019-03-05T05:14:02.802Z,2.90
2019-03-05T05:16:28.982Z,3.00
2019-03-05T05:18:55.614Z,2.57
2019-03-05T05:21:21.796Z,2.60
2019-03-05T05:23:48.307Z,2.77
2019-03-05T05:26:14.456Z,2.83
2019-03-05T05:28:40.602Z,3.07
2019-03-05T05:31:06.848Z,2.53
2019-03-05T05:33:33.005Z,2.73
2019-03-05T05:35:59.141Z,2.40
2019-03-05T05:38:25.293Z,2.70
2019-03-05T05:40:51.429Z,2.53
2019-03-05T05:43:23.185Z,2.60
2019-03-05T05:45:50.828Z,2.67
2019-03-05T05:48:17.010Z,2.67
2019-03-05T05:50:44.157Z,2.73
2019-03-05T05:53:10.543Z,3.10
2019-03-05T05:55:36.723Z,2.00
2019-03-05T05:58:03.875Z,1.80
2019-03-05T06:00:30.411Z,2.60
2019-03-05T06:02:56.598Z,2.13
2019-03-05T06:05:22.730Z,2.13
2019-03-05T06:07:48.911Z,2.20
2019-03-05T06:10:15.167Z,1.97
2019-03-05T06:12:41.447Z,2.63
2019-03-05T06:15:09.615Z,2.23
2019-03-05T06:17:35.774Z,2.33
2019-03-05T06:20:03.510Z,2.30
2019-03-05T06:22:29.746Z,2.37
2019-03-05T06:24:55.897Z,1.90
2019-03-05T06:27:22.273Z,2.53
2019-03-05T06:29:48.408Z,2.30
2019-03-05T06:32:17.322Z,2.13
2019-03-05T06:34:42.682Z,2.40
2019-03-05T06:37:08.831Z,2.57
2019-03-05T06:39:35.160Z,2.47
2019-03-05T06:42:01.421Z,1.80
2019-03-05T06:44:27.583Z,1.90
2019-03-05T06:46:53.963Z,2.27
2019-03-05T06:49:20.117Z,1.93
2019-03-05T06:52:08.063Z,1.83
2019-03-05T06:54:34.231Z,1.60
2019-03-05T06:57:00.399Z,1.30
2019-03-05T06:59:26.538Z,1.30
2019-03-05T07:01:52.727Z,1.40
2019-03-05T07:04:18.886Z,1.23
2019-03-05T07:06:46.530Z,1.03
2019-03-05T07:09:16.515Z,1.00
2019-03-05T07:12:03.501Z,1.17
2019-03-05T07:14:42.390Z,0.90
2019-03-05T07:17:18.118Z,0.90
2019-03-05T07:19:57.911Z,1.30
2019-03-05T07:22:25.678Z,1.17
2019-03-05T07:24:51.855Z,1.30
2019-03-05T07:27:25.968Z,1.43
2019-03-05T07:29:54.222Z,1.60
2019-03-05T07:32:20.358Z,1.70
2019-03-05T07:34:54.360Z,1.80
2019-03-05T07:37:20.505Z,2.33
2019-03-05T07:39:46.788Z,1.90
2019-03-05T07:42:12.996Z,2.10
2019-03-05T07:44:39.137Z,2.70
2019-03-05T07:47:05.311Z,2.23
2019-03-05T07:49:43.368Z,2.60
2019-03-05T07:52:00.558Z,2.50
2019-03-05T07:54:26.739Z,2.40
2019-03-05T07:56:52.884Z,2.67
2019-03-05T07:59:19.022Z,2.63
2019-03-05T08:01:45.167Z,2.70
2019-03-05T08:04:11.599Z,2.97
2019-03-05T08:06:38.780Z,2.70
2019-03-05T08:09:30.048Z,3.03
2019-03-05T08:12:09.123Z,2.53
2019-03-05T08:14:45.188Z,2.80
2019-03-05T08:17:11.455Z,2.63
2019-03-05T08:19:37.610Z,2.97
2019-03-05T08:22:04.965Z,2.63
2019-03-05T08:24:31.343Z,2.50
2019-03-05T08:26:57.499Z,3.00
2019-03-05T08:29:23.638Z,2.90
2019-03-05T08:31:50.262Z,2.90
2019-03-05T08:34:16.667Z,2.80
2019-03-05T08:36:42.815Z,2.20
2019-03-05T08:39:08.999Z,2.43
2019-03-05T08:41:35.556Z,2.63
2019-03-05T08:44:01.711Z,2.40
2019-03-05T08:46:27.860Z,2.43
2019-03-05T08:48:54.007Z,2.83
2019-03-05T08:51:20.146Z,2.77
2019-03-05T08:53:49.733Z,2.33
2019-03-05T08:56:14.363Z,2.87
2019-03-05T08:58:40.513Z,2.63
2019-03-05T09:01:06.880Z,2.60
2019-03-05T09:03:33.025Z,2.80
2019-03-05T09:05:59.275Z,3.10
2019-03-05T09:08:25.432Z,3.00
2019-03-05T09:10:52.271Z,3.27
2019-03-05T09:13:18.518Z,3.17
2019-03-05T09:15:44.898Z,2.70
2019-03-05T09:18:11.043Z,3.07
2019-03-05T09:20:37.220Z,3.50
2019-03-05T09:23:03.500Z,3.13
2019-03-05T09:25:29.667Z,3.03
2019-03-05T09:27:56.144Z,2.27
2019-03-05T09:30:22.915Z,2.70
2019-03-05T09:32:49.308Z,2.90
2019-03-05T09:35:16.169Z,2.93
2019-03-05T09:37:43.342Z,2.87
2019-03-05T09:40:15.466Z,2.93
2019-03-05T09:42:41.739Z,2.67
2019-03-05T09:45:11.078Z,3.07
2019-03-05T09:47:37.222Z,3.67
2019-03-05T09:50:06.595Z,3.47
2019-03-05T09:52:32.739Z,3.37
2019-03-05T09:54:58.888Z,3.53
2019-03-05T09:57:27.420Z,3.63
2019-03-05T09:59:53.635Z,3.00
2019-03-05T10:02:19.770Z,3.50
2019-03-05T10:04:45.936Z,2.93
2019-03-05T10:07:19.030Z,3.60
2019-03-05T10:09:41.675Z,3.37
2019-03-05T10:12:07.822Z,3.63
2019-03-05T10:14:33.961Z,3.17
2019-03-05T10:17:00.228Z,3.13
2019-03-05T10:19:26.463Z,3.83
2019-03-05T10:21:52.607Z,3.27
2019-03-05T10:24:18.753Z,3.60
2019-03-05T10:26:44.994Z,3.90
2019-03-05T10:29:11.342Z,3.27
2019-03-05T10:31:37.895Z,3.17
2019-03-05T10:34:04.055Z,4.27
2019-03-05T10:36:30.223Z,3.93
2019-03-05T10:38:57.556Z,3.63
2019-03-05T10:41:24.173Z,10.03
2019-03-05T10:43:50.314Z,3.50
2019-03-05T10:46:16.697Z,3.80
2019-03-05T10:48:42.836Z,3.60
2019-03-05T10:51:09.098Z,3.70
2019-03-05T10:53:35.335Z,6.00
2019-03-05T10:56:01.500Z,3.50
2019-03-05T10:58:33.876Z,4.60
2019-03-05T11:00:55.839Z,4.40
2019-03-05T11:03:25.104Z,3.70
2019-03-05T11:05:51.351Z,4.17
2019-03-05T11:08:19.946Z,3.10
2019-03-05T11:10:46.484Z,3.50
2019-03-05T11:13:12.722Z,3.40
2019-03-05T11:15:39.218Z,3.63
2019-03-05T11:18:06.581Z,3.13
2019-03-05T11:20:33.248Z,3.47
2019-03-05T11:22:59.519Z,2.93
2019-03-05T11:25:26.666Z,3.90
2019-03-05T11:27:52.844Z,3.40
2019-03-05T11:30:35.552Z,3.07
2019-03-05T11:32:54.539Z,2.90
2019-03-05T11:35:23.202Z,2.87
2019-03-05T11:37:49.568Z,3.00
2019-03-05T11:40:21.067Z,3.70
2019-03-05T11:42:45.602Z,3.83
2019-03-05T11:45:17.299Z,4.13
2019-03-05T11:47:43.657Z,4.67
2019-03-05T11:50:11.451Z,2.87
2019-03-05T11:52:37.607Z,2.70
2019-03-05T11:55:08.343Z,3.00
2019-03-05T11:57:34.523Z,2.63
2019-03-05T12:00:00.661Z,4.20
2019-03-05T12:02:26.813Z,3.13
2019-03-05T12:04:53.226Z,3.80
2019-03-05T12:07:19.383Z,3.60
2019-03-05T12:09:45.551Z,3.30
2019-03-05T12:12:11.786Z,3.57
2019-03-05T12:14:37.917Z,3.73
2019-03-05T12:17:04.516Z,3.50
2019-03-05T12:19:30.654Z,2.43
2019-03-05T12:21:56.798Z,2.67
2019-03-05T12:24:24.285Z,2.77
2019-03-05T12:26:51.258Z,2.67
2019-03-05T12:29:17.403Z,2.03
2019-03-05T12:31:43.539Z,3.03
2019-03-05T12:34:10.029Z,2.43
2019-03-05T12:36:36.180Z,1.87
2019-03-05T12:39:04.039Z,2.00
2019-03-05T12:41:31.531Z,1.90
2019-03-05T12:43:57.716Z,1.97
2019-03-05T12:46:23.891Z,2.10
2019-03-05T12:48:50.280Z,2.37
2019-03-05T12:51:16.427Z,2.57
2019-03-05T12:53:42.599Z,2.27
2019-03-05T12:56:08.844Z,2.30
2019-03-05T12:58:35.014Z,1.83
2019-03-05T13:01:01.162Z,2.50
2019-03-05T13:03:28.645Z,2.30
2019-03-05T13:05:54.806Z,2.40
2019-03-05T13:08:20.995Z,2.30
2019-03-05T13:10:47.163Z,2.30
2019-03-05T13:13:14.038Z,2.43
2019-03-05T13:15:41.563Z,2.50
2019-03-05T13:18:07.901Z,2.27
2019-03-05T13:20:34.054Z,2.23
2019-03-05T13:23:00.302Z,1.93
2019-03-05T13:25:28.526Z,1.90
2019-03-05T13:27:57.560Z,1.87
2019-03-05T13:30:29.907Z,2.07
2019-03-05T13:32:59.232Z,1.90
2019-03-05T13:35:25.455Z,1.77
2019-03-05T13:37:55.079Z,2.17
2019-03-05T13:40:30.114Z,1.80
2019-03-05T13:42:56.523Z,1.63
2019-03-05T13:45:24.195Z,1.67
2019-03-05T13:48:27.463Z,1.40
2019-03-05T13:51:11.981Z,1.83
2019-03-05T13:54:01.254Z,1.57
2019-03-05T13:56:43.704Z,1.80
2019-03-05T13:59:36.371Z,1.83
2019-03-05T14:02:04.623Z,3.73
2019-03-05T14:05:01.723Z,2.20
2019-03-05T14:08:04.883Z,2.10
2019-03-05T14:10:31.097Z,1.83
2019-03-05T14:12:57.651Z,2.07
2019-03-05T14:15:24.323Z,1.90
2019-03-05T14:17:50.514Z,2.10
2019-03-05T14:20:16.780Z,1.67
2019-03-05T14:22:43.168Z,1.80
2019-03-05T14:25:12.427Z,1.77
2019-03-05T14:27:38.583Z,1.70
2019-03-05T14:30:16.756Z,1.83
2019-03-05T14:32:42.987Z,1.83
2019-03-05T14:35:10.912Z,2.10
2019-03-05T14:37:37.193Z,1.93
2019-03-05T14:40:23.699Z,1.87
2019-03-05T14:42:38.254Z,1.77
2019-03-05T14:45:23.134Z,2.07
2019-03-05T14:47:50.989Z,1.80
2019-03-05T14:50:17.201Z,1.90
2019-03-05T14:52:43.373Z,2.03
2019-03-05T14:55:10.284Z,2.20
2019-03-05T14:57:37.510Z,1.87
2019-03-05T15:00:07.470Z,2.07
2019-03-05T15:02:35.592Z,2.10
2019-03-05T15:05:02.067Z,1.83
2019-03-05T15:07:28.359Z,2.17
2019-03-05T15:09:54.614Z,2.00
2019-03-05T15:12:20.878Z,1.90
2019-03-05T15:14:47.392Z,1.77
2019-03-05T15:17:13.557Z,1.83
2019-03-05T15:19:39.787Z,1.80
2019-03-05T15:22:05.959Z,1.70
2019-03-05T15:24:32.115Z,2.10
2019-03-05T15:26:58.361Z,1.70
2019-03-05T15:29:24.550Z,1.70
2019-03-05T15:31:50.787Z,2.20
2019-03-05T15:34:16.922Z,1.97
2019-03-05T15:36:43.195Z,2.17
2019-03-05T15:39:09.844Z,1.90
2019-03-05T15:41:38.035Z,2.00
2019-03-05T15:44:04.305Z,2.47
2019-03-05T15:46:30.545Z,2.00
2019-03-05T15:48:56.767Z,1.93
2019-03-05T15:51:23.039Z,2.20
2019-03-05T15:53:49.189Z,1.83
2019-03-05T15:56:15.316Z,2.13
2019-03-05T15:58:41.462Z,2.10
2019-03-05T16:01:09.783Z,1.90
2019-03-05T16:03:36.144Z,1.87
2019-03-05T16:06:02.406Z,1.63
2019-03-05T16:08:28.899Z,1.97
2019-03-05T16:10:58.502Z,2.80
2019-03-05T16:13:23.099Z,2.27
2019-03-05T16:15:49.250Z,2.37
2019-03-05T16:18:15.732Z,1.70
2019-03-05T16:20:42.181Z,2.20
2019-03-05T16:23:08.591Z,2.20
2019-03-05T16:25:34.754Z,2.77
2019-03-05T16:28:02.169Z,2.40
2019-03-05T16:30:47.841Z,1.60
2019-03-05T16:33:18.882Z,2.73
2019-03-05T16:35:55.452Z,2.17
2019-03-05T16:38:42.508Z,2.23
2019-03-05T16:41:10.544Z,2.20
2019-03-05T16:43:47.456Z,1.70
2019-03-05T16:46:15.535Z,2.10
2019-03-05T16:48:49.200Z,2.20
2019-03-05T16:51:17.238Z,2.93
2019-03-05T16:53:48.798Z,2.40
2019-03-05T16:56:25.775Z,2.23
2019-03-05T16:58:53.840Z,1.43
2019-03-05T17:01:24.394Z,2.03
2019-03-05T17:03:55.119Z,2.90
2019-03-05T17:06:32.119Z,4.43
2019-03-05T17:09:03.426Z,5.70
2019-03-05T17:11:39.532Z,4.17
2019-03-05T17:14:06.019Z,5.10
2019-03-05T17:16:32.353Z,8.33
2019-03-05T17:18:58.558Z,5.50
2019-03-05T17:21:27.734Z,4.20
2019-03-05T17:23:53.173Z,3.57
2019-03-05T17:26:19.433Z,3.70
2019-03-05T17:28:45.911Z,4.33
2019-03-05T17:31:12.142Z,4.20
2019-03-05T17:33:38.407Z,6.57
2019-03-05T17:36:05.543Z,5.30
2019-03-05T17:38:32.160Z,4.40
2019-03-05T17:40:58.577Z,4.00
2019-03-05T17:43:24.739Z,3.80
2019-03-05T17:45:50.975Z,3.70
2019-03-05T17:48:17.470Z,2.67
2019-03-05T17:50:43.715Z,2.10
2019-03-05T17:53:10.052Z,2.90
2019-03-05T17:55:36.415Z,3.20
2019-03-05T17:58:02.785Z,2.30
2019-03-05T18:00:31.032Z,2.03
2019-03-05T18:02:57.578Z,2.20
2019-03-05T18:05:24.926Z,1.97
2019-03-05T18:07:51.291Z,1.97
2019-03-05T18:10:17.625Z,1.87
2019-03-05T18:12:44.108Z,2.57
2019-03-05T18:15:16.366Z,2.30
2019-03-05T18:17:42.819Z,1.70
2019-03-05T18:20:12.603Z,2.90
2019-03-05T18:22:38.833Z,2.10
2019-03-05T18:25:08.499Z,2.03
2019-03-05T18:27:34.938Z,2.20
2019-03-05T18:30:02.333Z,2.03
2019-03-05T18:32:29.471Z,2.10
2019-03-05T18:34:55.865Z,2.40
2019-03-05T18:37:21.987Z,2.23
2019-03-05T18:39:48.184Z,2.00
2019-03-05T18:42:14.818Z,2.77
2019-03-05T18:44:41.070Z,2.37
2019-03-05T18:47:07.250Z,2.97
2019-03-05T18:49:33.397Z,3.20
2019-03-05T18:51:59.582Z,2.00
2019-03-05T18:54:25.730Z,2.07
2019-03-05T18:56:51.921Z,3.20
2019-03-05T18:59:18.079Z,2.33
2019-03-05T19:01:44.486Z,3.53
2019-03-05T19:04:10.615Z,4.60
2019-03-05T19:06:37.061Z,3.13
2019-03-05T19:09:03.939Z,3.27
2019-03-05T19:11:32.015Z,3.20
2019-03-05T19:13:58.259Z,3.10
2019-03-05T19:16:24.608Z,3.70
2019-03-05T19:18:50.750Z,3.10
2019-03-05T19:21:17.022Z,4.57
2019-03-05T19:23:43.212Z,4.40
2019-03-05T19:26:09.358Z,6.20
2019-03-05T19:28:35.510Z,5.33
2019-03-05T19:31:01.675Z,5.40
2019-03-05T19:33:27.908Z,4.83
2019-03-05T19:35:54.084Z,2.70
2019-03-05T19:38:20.337Z,3.40
2019-03-05T19:40:47.023Z,2.43
2019-03-05T19:43:13.319Z,2.23
2019-03-05T19:45:40.543Z,2.27
2019-03-05T19:48:06.711Z,2.70
2019-03-05T19:50:33.023Z,2.80
2019-03-05T19:52:59.526Z,3.10
2019-03-05T19:55:27.306Z,2.97
2019-03-05T19:58:09.699Z,2.83
2019-03-05T20:00:40.139Z,3.80
2019-03-05T20:03:06.755Z,3.23
2019-03-05T20:05:32.918Z,2.77
2019-03-05T20:07:59.062Z,3.17
2019-03-05T20:10:28.332Z,3.03
2019-03-05T20:12:54.483Z,3.10
2019-03-05T20:15:20.651Z,3.17
2019-03-05T20:17:46.809Z,2.93
2019-03-05T20:20:14.560Z,3.10
2019-03-05T20:22:41.133Z,3.27
2019-03-05T20:25:11.414Z,3.53
2019-03-05T20:27:38.055Z,3.43
2019-03-05T20:30:08.294Z,3.30
2019-03-05T20:32:36.379Z,3.67
2019-03-05T20:35:03.838Z,4.60
2019-03-05T20:37:30.373Z,3.97
2019-03-05T20:39:56.711Z,3.77
2019-03-05T20:42:22.880Z,4.13
2019-03-05T20:44:49.451Z,3.80
2019-03-05T20:47:15.603Z,3.13
2019-03-05T20:49:41.840Z,3.40
2019-03-05T20:52:07.996Z,3.13
2019-03-05T20:54:34.234Z,3.57
2019-03-05T20:57:00.591Z,3.90
2019-03-05T20:59:26.738Z,4.27
2019-03-05T21:01:53.204Z,4.03
2019-03-05T21:04:19.475Z,4.33
2019-03-05T21:06:46.058Z,3.43
2019-03-05T21:09:20.315Z,3.53
2019-03-05T21:11:46.562Z,3.40
2019-03-05T21:14:13.319Z,4.00
2019-03-05T21:16:39.723Z,4.47
2019-03-05T21:19:06.099Z,4.03
2019-03-05T21:21:32.348Z,4.17
2019-03-05T21:23:58.494Z,3.17
2019-03-05T21:26:24.649Z,3.20
2019-03-05T21:28:51.107Z,3.50
2019-03-05T21:31:17.266Z,3.60
2019-03-05T21:33:43.465Z,3.67
2019-03-05T21:36:09.797Z,3.10
2019-03-05T21:38:36.039Z,3.23
2019-03-05T21:41:02.206Z,3.90
2019-03-05T21:43:28.866Z,4.60
2019-03-05T21:46:04.646Z,4.93
2019-03-05T21:48:30.803Z,4.90
2019-03-05T21:50:57.206Z,4.17
2019-03-05T21:53:23.632Z,4.40
2019-03-05T21:55:49.767Z,4.03
2019-03-05T21:58:15.914Z,4.53
2019-03-05T22:00:42.254Z,5.07
2019-03-05T22:03:08.504Z,5.63
2019-03-05T22:05:34.943Z,5.50
2019-03-05T22:08:01.199Z,5.57
2019-03-05T22:10:27.430Z,5.10
2019-03-05T22:12:53.587Z,5.17
2019-03-05T22:15:25.783Z,4.63
2019-03-05T22:17:52.258Z,4.20
2019-03-05T22:20:19.127Z,4.03
2019-03-05T22:22:45.395Z,3.70
2019-03-05T22:25:14.146Z,3.57
2019-03-05T22:27:40.300Z,3.40
2019-03-05T22:30:10.348Z,3.17
2019-03-05T22:32:36.613Z,3.03
2019-03-05T22:35:04.057Z,3.53
2019-03-05T22:37:30.590Z,3.10
2019-03-05T22:39:56.736Z,3.40
2019-03-05T22:42:22.908Z,3.40
2019-03-05T22:44:49.069Z,3.03
2019-03-05T22:47:15.212Z,2.93
2019-03-05T22:49:41.386Z,2.70
2019-03-05T22:52:07.543Z,3.10
2019-03-05T22:54:33.983Z,2.53
2019-03-05T22:57:00.120Z,2.80
2019-03-05T22:59:26.274Z,2.67
2019-03-05T23:01:53.714Z,3.20
2019-03-05T23:04:23.750Z,2.80
2019-03-05T23:07:26.422Z,3.10
2019-03-05T23:09:52.567Z,2.87
2019-03-05T23:12:19.211Z,2.40
2019-03-05T23:14:45.454Z,3.27
2019-03-05T23:17:12.643Z,3.00
2019-03-05T23:19:38.993Z,3.00
2019-03-05T23:22:05.331Z,2.70
2019-03-05T23:24:31.574Z,3.23
2019-03-05T23:26:58.951Z,3.17
2019-03-05T23:29:27.020Z,3.13
2019-03-05T23:31:53.183Z,2.70
2019-03-05T23:34:19.472Z,3.40
2019-03-05T23:36:45.686Z,2.97
2019-03-05T23:39:14.847Z,3.47
2019-03-05T23:41:42.211Z,3.47
2019-03-05T23:44:08.864Z,3.50
2019-03-05T23:46:35.113Z,4.27
2019-03-05T23:49:01.242Z,3.00
2019-03-05T23:51:28.393Z,3.33
2019-03-05T23:53:54.549Z,3.87
2019-03-05T23:56:20.786Z,3.40
2019-03-05T23:58:46.910Z,3.60
